Time;durP1;ratioP1;P1;durP2;ratioP2;P2;SDS_P1;SDS_P2;PMS_P1;PMS_P2;Temp;Humidity;BMP_temperature;BMP_pressure;BME280_temperature;BME280_humidity;BME280_pressure;Samples;Min_cycle;Max_cycle;Signal;HPM_P1;HPM_P2
2023/01/27 00:00:05;;;;;;;;;;;;;;;18.24;60.22;101479.31;2248628;78;52266;-73
2023/01/27 00:03:08;;;;;;;;;;;;;;;18.22;60.23;101481.31;2281127;78;50715;-73
2023/01/27 00:06:11;;;;;;;;;;;;;;;18.17;60.28;101475.59;2295120;76;50667;-74
2023/01/27 00:09:13;;;;;;;;;;;;;;;18.15;60.42;101474.40;2286357;77;51536;-74
2023/01/27 00:15:38;;;;;;;;;;;;;;;18.09;60.60;101470.20;2320787;76;22522;-73
2023/01/27 00:18:40;;;;;;;;;;;;;;;18.02;60.73;101481.53;2320667;76;50730;-73
2023/01/27 00:25:01;;;;;;;;;;;;;;;17.97;61.02;101477.15;2284610;76;22558;-73
2023/01/27 00:28:04;;;;;;;;;;;;;;;18.05;61.00;101474.51;2281441;78;51679;-73
2023/01/27 00:31:08;;;;;;;;;;;;;;;18.13;60.82;101471.03;2249030;77;51694;-74
2023/01/27 00:34:10;;;;;;;;;;;;;;;18.19;60.63;101468.23;2281185;78;51633;-74
2023/01/27 00:37:11;;;;;;;;;;;;;;;18.25;60.52;101472.94;2223117;78;50981;-74
2023/01/27 00:40:13;;;;;;;;;;;;;;;18.25;60.41;101471.09;2289613;76;51433;-75
2023/01/27 00:43:15;;;;;;;;;;;;;;;18.22;60.38;101470.09;2303633;76;50822;-74
2023/01/27 00:46:16;;;;;;;;;;;;;;;18.19;60.43;101469.58;2293478;77;51602;-74
2023/01/27 00:49:18;;;;;;;;;;;;;;;18.17;60.46;101471.57;2248526;78;50108;-74
2023/01/27 00:52:20;;;;;;;;;;;;;;;18.16;60.45;101474.76;2281327;78;51617;-74
2023/01/27 00:55:21;;;;;;;;;;;;;;;18.13;60.52;101480.41;2290820;77;51598;-74
2023/01/27 00:58:23;;;;;;;;;;;;;;;18.09;60.66;101487.61;2317996;76;51432;-74
2023/01/27 01:01:25;;;;;;;;;;;;;;;18.03;60.76;101486.38;2317996;76;51048;-74
2023/01/27 01:04:26;;;;;;;;;;;;;;;17.97;60.90;101482.50;2311910;76;51459;-74
2023/01/27 01:07:28;;;;;;;;;;;;;;;17.94;61.14;101491.36;2281484;76;53145;-74
2023/01/27 01:10:30;;;;;;;;;;;;;;;17.98;61.10;101493.57;2295029;77;51421;-74
2023/01/27 01:13:31;;;;;;;;;;;;;;;18.08;60.89;101492.61;2254888;78;51710;-74
2023/01/27 01:16:33;;;;;;;;;;;;;;;18.15;60.80;101494.99;2307719;77;51471;-75
2023/01/27 01:19:35;;;;;;;;;;;;;;;18.21;60.55;101497.02;2318016;76;50359;-74
2023/01/27 01:22:36;;;;;;;;;;;;;;;18.22;60.42;101490.68;2317765;76;50359;-74
2023/01/27 01:25:38;;;;;;;;;;;;;;;18.20;60.41;101495.36;2274627;77;52355;-75
2023/01/27 01:28:39;;;;;;;;;;;;;;;18.17;60.42;101498.36;2248711;78;50055;-74
2023/01/27 01:31:41;;;;;;;;;;;;;;;18.15;60.45;101500.34;2284971;77;51454;-75
2023/01/27 01:34:43;;;;;;;;;;;;;;;18.11;60.45;101494.48;2258217;77;50252;-75
2023/01/27 01:37:44;;;;;;;;;;;;;;;18.09;60.48;101499.16;2278272;77;49630;-75
2023/01/27 01:40:46;;;;;;;;;;;;;;;18.05;60.57;101503.13;2300134;76;50298;-74
2023/01/27 01:43:48;;;;;;;;;;;;;;;18.02;60.75;101509.64;2300437;76;50633;-74
2023/01/27 01:46:49;;;;;;;;;;;;;;;17.96;60.88;101502.26;2262799;77;51527;-74
2023/01/27 01:49:51;;;;;;;;;;;;;;;17.94;61.04;101503.41;2260379;77;52394;-74
2023/01/27 01:52:53;;;;;;;;;;;;;;;17.97;61.05;101510.62;2292148;76;50232;-74
2023/01/27 01:55:55;;;;;;;;;;;;;;;18.04;60.91;101507.66;2293824;76;50690;-74
2023/01/27 01:58:57;;;;;;;;;;;;;;;18.11;60.74;101507.01;2293184;77;51469;-74
2023/01/27 02:02:00;;;;;;;;;;;;;;;18.16;60.70;101508.23;2277210;76;52498;-74
2023/01/27 02:05:03;;;;;;;;;;;;;;;18.19;60.68;101517.80;2305027;76;50370;-74
2023/01/27 02:08:09;;;;;;;;;;;;;;;18.20;60.59;101512.77;2312401;76;50358;-74
2023/01/27 02:11:10;;;;;;;;;;;;;;;18.19;60.62;101516.45;2322031;76;50788;-73
2023/01/27 02:14:12;;;;;;;;;;;;;;;18.18;60.62;101508.06;2282016;76;52582;-74
2023/01/27 02:17:14;;;;;;;;;;;;;;;18.14;60.68;101507.55;2301430;76;51355;-73
2023/01/27 02:20:34;;;;;;;;;;;;;;;18.11;60.71;101521.27;2313502;76;51576;-73
2023/01/27 02:23:37;;;;;;;;;;;;;;;18.08;60.64;101504.16;2317485;76;50709;-74
2023/01/27 02:26:40;;;;;;;;;;;;;;;18.04;60.67;101502.80;2287540;76;51222;-73
2023/01/27 02:29:41;;;;;;;;;;;;;;;17.97;60.72;101507.94;2293307;77;50775;-74
2023/01/27 02:32:43;;;;;;;;;;;;;;;17.92;60.85;101506.23;2292779;77;51471;-73
2023/01/27 02:36:05;;;;;;;;;;;;;;;17.92;61.10;101508.08;2283546;77;51401;-74
2023/01/27 02:39:06;;;;;;;;;;;;;;;17.99;61.07;101506.45;2269430;77;50828;-74
2023/01/27 02:42:09;;;;;;;;;;;;;;;18.09;60.81;101502.34;2293087;77;51542;-74
2023/01/27 02:45:10;;;;;;;;;;;;;;;18.14;60.63;101501.36;2307835;76;51393;-74
2023/01/27 02:48:12;;;;;;;;;;;;;;;18.17;60.50;101509.07;2311240;76;51439;-74
2023/01/27 02:51:14;;;;;;;;;;;;;;;18.18;60.40;101507.55;2295865;76;51730;-74
2023/01/27 02:54:15;;;;;;;;;;;;;;;18.16;60.38;101510.05;2328455;76;50393;-74
2023/01/27 02:57:17;;;;;;;;;;;;;;;18.15;60.36;101519.09;2322091;76;50682;-74
2023/01/27 03:00:19;;;;;;;;;;;;;;;18.12;60.38;101530.97;2311581;76;50507;-74
2023/01/27 03:03:20;;;;;;;;;;;;;;;18.08;60.44;101526.91;2251829;77;51170;-74
2023/01/27 03:06:22;;;;;;;;;;;;;;;18.04;60.51;101533.09;2262817;77;50675;-74
2023/01/27 03:09:24;;;;;;;;;;;;;;;18.01;60.58;101534.76;2287496;77;50678;-74
2023/01/27 03:12:25;;;;;;;;;;;;;;;17.96;60.59;101529.54;2293038;77;51594;-74
2023/01/27 03:18:48;;;;;;;;;;;;;;;17.87;61.04;101534.48;2304687;76;22411;-74
2023/01/27 03:21:51;;;;;;;;;;;;;;;17.96;61.00;101530.38;2293168;77;51617;-74
2023/01/27 03:24:53;;;;;;;;;;;;;;;18.02;60.91;101525.72;2263047;76;50296;-74
2023/01/27 03:27:55;;;;;;;;;;;;;;;18.09;60.75;101520.58;2294665;76;50065;-74
2023/01/27 03:31:00;;;;;;;;;;;;;;;18.14;60.59;101525.47;2287461;77;52416;-74
2023/01/27 03:34:02;;;;;;;;;;;;;;;18.16;60.50;101520.77;2284038;77;50711;-74
2023/01/27 03:47:02;;;;;;;;;;;;;;;18.06;60.56;101532.45;2265196;76;22470;-74
2023/01/27 03:50:10;;;;;;;;;;;;;;;18.02;60.65;101532.91;2292691;77;51457;-74
2023/01/27 03:53:07;;;;;;;;;;;;;;;17.98;60.77;101531.53;2248726;78;22324;-74
2023/01/27 03:56:09;;;;;;;;;;;;;;;17.92;60.73;101531.67;2272163;78;51204;-74
2023/01/27 03:59:11;;;;;;;;;;;;;;;17.85;60.92;101525.25;2249042;78;51542;-74
2023/01/27 04:08:52;;;;;;;;;;;;;;;18.01;60.86;101526.72;2282125;76;22450;-75
2023/01/27 04:11:54;;;;;;;;;;;;;;;18.10;60.65;101524.09;2259487;78;50733;-74
2023/01/27 04:14:55;;;;;;;;;;;;;;;18.13;60.50;101527.28;2281365;78;50338;-74
2023/01/27 04:17:57;;;;;;;;;;;;;;;18.13;60.44;101531.80;2250743;78;50077;-75
2023/01/27 04:20:59;;;;;;;;;;;;;;;18.10;60.42;101527.60;2247353;78;49584;-74
2023/01/27 04:24:00;;;;;;;;;;;;;;;18.08;60.44;101535.45;2248379;78;49938;-75
2023/01/27 04:27:03;;;;;;;;;;;;;;;18.06;60.47;101535.13;2307142;76;50315;-74
2023/01/27 04:30:05;;;;;;;;;;;;;;;18.03;60.52;101533.24;2320470;76;51476;-74
2023/01/27 04:33:09;;;;;;;;;;;;;;;17.99;60.62;101539.93;2261118;76;51299;-74
2023/01/27 04:36:11;;;;;;;;;;;;;;;17.95;60.60;101538.55;2273663;77;22390;-74
2023/01/27 04:39:13;;;;;;;;;;;;;;;17.88;60.56;101544.19;2281391;76;51581;-74
2023/01/27 04:42:15;;;;;;;;;;;;;;;17.84;60.72;101538.31;2302744;76;50776;-74
2023/01/27 04:45:16;;;;;;;;;;;;;;;17.84;60.90;101538.31;2283709;76;51129;-74
2023/01/27 04:48:18;;;;;;;;;;;;;;;17.91;60.87;101539.38;2248532;78;50430;-73
2023/01/27 04:51:20;;;;;;;;;;;;;;;17.99;60.64;101547.45;2255234;77;50276;-76
2023/01/27 04:54:21;;;;;;;;;;;;;;;18.05;60.59;101550.84;2313739;77;49939;-74
2023/01/27 04:57:23;;;;;;;;;;;;;;;18.12;60.48;101556.92;2290831;76;51563;-74
2023/01/27 05:00:24;;;;;;;;;;;;;;;18.15;60.33;101551.23;2273488;78;51537;-74
2023/01/27 05:03:26;;;;;;;;;;;;;;;18.12;60.34;101550.22;2274720;77;50698;-74
2023/01/27 05:06:28;;;;;;;;;;;;;;;18.12;60.31;101547.55;2252093;78;50749;-74
2023/01/27 05:09:29;;;;;;;;;;;;;;;18.10;60.32;101561.59;2232563;76;51039;-74
2023/01/27 05:12:31;;;;;;;;;;;;;;;18.06;60.36;101557.89;2266454;76;51446;-74
2023/01/27 05:15:33;;;;;;;;;;;;;;;18.02;60.44;101561.87;2281515;76;50438;-74
2023/01/27 05:18:34;;;;;;;;;;;;;;;17.99;60.47;101566.20;2248623;78;50364;-73
2023/01/27 05:21:36;;;;;;;;;;;;;;;17.96;60.45;101564.34;2248528;78;51116;-75
2023/01/27 05:24:38;;;;;;;;;;;;;;;17.92;60.52;101575.85;2249286;78;53203;-74
2023/01/27 05:27:39;;;;;;;;;;;;;;;17.86;60.75;101576.48;2265690;78;50401;-74
2023/01/27 05:30:41;;;;;;;;;;;;;;;17.87;60.89;101574.64;2281579;78;50263;-74
2023/01/27 05:33:42;;;;;;;;;;;;;;;17.96;60.79;101575.06;2248384;78;50843;-73
2023/01/27 05:36:44;;;;;;;;;;;;;;;18.03;60.63;101586.80;2248840;78;50643;-74
2023/01/27 05:39:45;;;;;;;;;;;;;;;18.09;60.49;101585.36;2283624;76;51482;-73
2023/01/27 05:42:47;;;;;;;;;;;;;;;18.12;60.43;101585.05;2304783;76;51556;-73
2023/01/27 05:45:48;;;;;;;;;;;;;;;18.11;60.42;101588.70;2265618;76;52520;-74
2023/01/27 05:48:54;;;;;;;;;;;;;;;18.12;60.78;101583.70;2318654;76;51529;-73
2023/01/27 05:51:56;;;;;;;;;;;;;;;18.10;60.72;101589.70;2314576;77;50360;-73
2023/01/27 05:54:57;;;;;;;;;;;;;;;18.06;60.53;101583.33;2314654;77;50302;-73
2023/01/27 05:57:59;;;;;;;;;;;;;;;18.01;60.42;101592.34;2292820;77;51928;-72
2023/01/27 06:01:02;;;;;;;;;;;;;;;17.98;60.34;101593.99;2318745;76;50673;-73
2023/01/27 06:04:04;;;;;;;;;;;;;;;17.95;60.27;101596.13;2291839;76;51570;-73
2023/01/27 06:07:05;;;;;;;;;;;;;;;17.90;60.28;101589.05;2282245;78;50370;-74
2023/01/27 06:10:07;;;;;;;;;;;;;;;17.84;60.34;101593.20;2255052;77;50276;-71
2023/01/27 06:13:09;;;;;;;;;;;;;;;17.86;60.19;101591.72;2305060;76;50682;-71
2023/01/27 06:16:12;;;;;;;;;;;;;;;17.92;60.00;101594.59;2317800;76;50407;-71
2023/01/27 06:19:13;;;;;;;;;;;;;;;17.98;59.78;101597.14;2286836;76;51561;-70
2023/01/27 06:22:15;;;;;;;;;;;;;;;18.01;59.59;101589.66;2261761;76;52456;-72
2023/01/27 06:25:16;;;;;;;;;;;;;;;18.05;59.45;101584.31;2320814;76;50612;-72
2023/01/27 06:28:18;;;;;;;;;;;;;;;18.04;59.37;101581.30;2299812;76;52151;-72
2023/01/27 06:31:20;;;;;;;;;;;;;;;18.03;59.32;101588.14;2282013;78;51508;-71
2023/01/27 06:34:22;;;;;;;;;;;;;;;18.01;59.33;101588.82;2272308;77;51857;-72
2023/01/27 06:37:23;;;;;;;;;;;;;;;17.98;59.32;101589.97;2261115;78;50352;-72
2023/01/27 06:40:25;;;;;;;;;;;;;;;17.96;59.35;101591.96;2291034;76;50110;-71
2023/01/27 06:43:27;;;;;;;;;;;;;;;17.93;59.35;101596.77;2292484;77;50804;-72
2023/01/27 06:46:28;;;;;;;;;;;;;;;17.89;59.37;101598.92;2265453;76;51677;-72
2023/01/27 06:49:30;;;;;;;;;;;;;;;17.85;59.48;101600.22;2260011;78;51463;-73
2023/01/27 06:52:32;;;;;;;;;;;;;;;17.81;59.57;101601.55;2249669;76;50283;-72
2023/01/27 06:55:33;;;;;;;;;;;;;;;17.84;59.50;101612.77;2249208;78;50019;-72
2023/01/27 06:58:35;;;;;;;;;;;;;;;17.90;59.68;101609.97;2261323;78;50077;-74
2023/01/27 07:01:37;;;;;;;;;;;;;;;17.95;59.76;101613.02;2281260;78;51518;-74
2023/01/27 07:04:38;;;;;;;;;;;;;;;18.00;59.65;101613.39;2302681;76;51410;-74
2023/01/27 07:07:40;;;;;;;;;;;;;;;18.09;59.81;101621.52;2313796;77;51445;-74
2023/01/27 07:10:41;;;;;;;;;;;;;;;18.08;59.89;101613.95;2279614;77;52228;-73
2023/01/27 07:13:43;;;;;;;;;;;;;;;18.06;59.87;101611.45;2263292;76;50279;-73
2023/01/27 07:16:45;;;;;;;;;;;;;;;18.02;59.81;101610.58;2281230;78;50204;-73
2023/01/27 07:19:46;;;;;;;;;;;;;;;17.98;59.80;101618.09;2281177;78;51513;-73
2023/01/27 07:22:48;;;;;;;;;;;;;;;17.94;59.83;101615.37;2248311;78;51158;-73
2023/01/27 07:25:50;;;;;;;;;;;;;;;17.92;59.77;101622.70;2268891;76;50243;-72
2023/01/27 07:28:51;;;;;;;;;;;;;;;17.89;59.77;101627.04;2253828;76;50249;-73
2023/01/27 07:31:53;;;;;;;;;;;;;;;17.88;59.76;101624.50;2272928;77;50077;-74
2023/01/27 07:34:54;;;;;;;;;;;;;;;17.83;59.86;101631.69;2240042;76;49335;-73
2023/01/27 07:37:56;;;;;;;;;;;;;;;17.83;59.86;101637.04;2276500;77;49995;-72
2023/01/27 07:40:58;;;;;;;;;;;;;;;17.89;59.72;101637.75;2294774;76;50424;-74
2023/01/27 07:44:00;;;;;;;;;;;;;;;17.94;59.57;101634.11;2293604;77;50521;-74
2023/01/27 07:47:01;;;;;;;;;;;;;;;17.98;59.44;101638.17;2291401;77;49511;-74
2023/01/27 07:50:03;;;;;;;;;;;;;;;17.97;59.37;101641.00;2295875;76;50256;-74
2023/01/27 07:53:04;;;;;;;;;;;;;;;17.95;59.36;101652.35;2248444;78;51469;-73
2023/01/27 07:56:10;;;;;;;;;;;;;;;17.93;59.35;101643.63;2303614;76;52419;-73
2023/01/27 07:59:10;;;;;;;;;;;;;;;17.91;59.33;101652.34;2280921;76;22602;-74
2023/01/27 08:02:11;;;;;;;;;;;;;;;17.87;59.61;101644.25;2281301;78;51607;-74
2023/01/27 08:05:13;;;;;;;;;;;;;;;17.83;59.70;101651.27;2283084;77;50252;-74
2023/01/27 08:08:15;;;;;;;;;;;;;;;17.82;59.82;101644.20;2249474;78;49960;-74
2023/01/27 08:11:16;;;;;;;;;;;;;;;17.78;59.89;101650.84;2262252;78;52333;-74
2023/01/27 08:14:18;;;;;;;;;;;;;;;17.74;60.09;101651.30;2256145;78;50164;-74
2023/01/27 08:17:19;;;;;;;;;;;;;;;17.70;60.27;101649.91;2253462;76;49910;-72
2023/01/27 08:20:22;;;;;;;;;;;;;;;17.72;60.36;101650.10;2274103;76;50222;-73
2023/01/27 08:23:23;;;;;;;;;;;;;;;17.74;60.29;101650.80;2276096;76;51717;-74
2023/01/27 08:26:25;;;;;;;;;;;;;;;17.88;59.91;101649.94;2283463;76;51499;-74
2023/01/27 08:29:28;;;;;;;;;;;;;;;17.95;59.72;101655.86;2307065;76;51625;-72
2023/01/27 08:32:29;;;;;;;;;;;;;;;17.99;59.51;101655.08;2264000;78;50325;-74
2023/01/27 08:35:31;;;;;;;;;;;;;;;17.99;59.45;101659.09;2256751;76;49583;-73
2023/01/27 08:38:37;;;;;;;;;;;;;;;17.99;59.29;101669.30;2270163;76;50539;-73
2023/01/27 08:41:36;;;;;;;;;;;;;;;18.02;59.08;101660.95;2283055;78;22664;-74
2023/01/27 08:44:37;;;;;;;;;;;;;;;18.00;59.25;101666.95;2283920;76;50819;-72
2023/01/27 08:47:39;;;;;;;;;;;;;;;18.01;59.21;101677.20;2251385;76;51726;-72
2023/01/27 08:50:42;;;;;;;;;;;;;;;17.90;59.73;101676.91;2314804;77;50298;-75
2023/01/27 08:53:44;;;;;;;;;;;;;;;17.87;59.52;101679.89;2313806;77;51522;-73
2023/01/27 08:56:45;;;;;;;;;;;;;;;17.81;60.22;101683.20;2291442;76;51510;-73
2023/01/27 08:59:47;;;;;;;;;;;;;;;17.77;59.95;101677.25;2256357;77;50125;-74
2023/01/27 09:02:53;;;;;;;;;;;;;;;17.81;60.28;101685.88;2281423;76;51555;-76
2023/01/27 09:05:52;;;;;;;;;;;;;;;17.84;60.27;101682.88;2280723;78;22811;-75
2023/01/27 09:09:15;;;;;;;;;;;;;;;17.90;60.15;101690.30;2296991;76;49913;-74
2023/01/27 09:11:57;;;;;;;;;;;;;;;17.91;59.83;101681.28;2278255;77;22335;-75
2023/01/27 09:14:58;;;;;;;;;;;;;;;17.94;60.07;101689.51;2249324;76;51472;-74
2023/01/27 09:18:00;;;;;;;;;;;;;;;17.95;60.05;101695.20;2248660;78;50743;-74
2023/01/27 09:21:05;;;;;;;;;;;;;;;17.95;60.08;101689.34;2283268;77;51502;-73
2023/01/27 09:24:06;;;;;;;;;;;;;;;17.94;59.67;101695.70;2247777;78;52533;-73
2023/01/27 09:27:08;;;;;;;;;;;;;;;17.92;59.66;101699.02;2258232;76;51531;-75
2023/01/27 09:30:10;;;;;;;;;;;;;;;17.86;60.20;101706.84;2263468;78;53576;-75
2023/01/27 09:33:12;;;;;;;;;;;;;;;17.86;60.21;101702.33;2242248;78;53310;-75
2023/01/27 09:36:15;;;;;;;;;;;;;;;17.86;60.13;101706.84;2261094;78;49275;-75
2023/01/27 09:39:17;;;;;;;;;;;;;;;17.86;60.14;101714.87;2291998;76;50967;-74
2023/01/27 09:42:23;;;;;;;;;;;;;;;17.86;60.13;101718.38;2304669;77;51546;-75
2023/01/27 09:45:35;;;;;;;;;;;;;;;17.89;60.04;101717.23;2295633;77;50720;-75
2023/01/27 09:48:39;;;;;;;;;;;;;;;17.90;60.15;101717.07;2259038;77;51256;-75
2023/01/27 09:51:58;;;;;;;;;;;;;;;17.92;60.15;101723.12;2320096;76;50467;-75
2023/01/27 09:55:17;;;;;;;;;;;;;;;17.94;60.13;101716.28;2296069;76;50036;-75
2023/01/27 09:58:38;;;;;;;;;;;;;;;17.95;60.02;101725.48;2253548;78;50918;-75
2023/01/27 10:01:41;;;;;;;;;;;;;;;17.96;60.07;101718.32;2251719;76;51815;-77
2023/01/27 10:04:48;;;;;;;;;;;;;;;17.95;59.87;101720.12;2306986;76;50717;-76
2023/01/27 10:08:00;;;;;;;;;;;;;;;17.95;59.91;101717.45;2294724;77;52791;-75
2023/01/27 10:11:14;;;;;;;;;;;;;;;17.95;59.83;101726.83;2292236;77;50776;-76
2023/01/27 10:14:29;;;;;;;;;;;;;;;17.94;59.80;101723.81;2286417;76;22460;-76
2023/01/27 10:17:32;;;;;;;;;;;;;;;17.91;59.75;101724.13;2306273;76;52220;-76
2023/01/27 10:20:36;;;;;;;;;;;;;;;17.90;59.88;101729.12;2304194;76;51479;-77
2023/01/27 10:23:45;;;;;;;;;;;;;;;17.90;59.76;101726.95;2296165;77;50907;-75
2023/01/27 10:26:49;;;;;;;;;;;;;;;17.91;59.77;101728.14;2261158;76;50928;-76
2023/01/27 10:29:52;;;;;;;;;;;;;;;17.94;59.50;101730.52;2300344;76;51919;-75
2023/01/27 10:32:55;;;;;;;;;;;;;;;17.99;59.38;101732.73;2299299;76;51707;-73
2023/01/27 10:35:58;;;;;;;;;;;;;;;18.00;59.28;101728.55;2268007;76;51605;-74
2023/01/27 10:39:05;;;;;;;;;;;;;;;18.03;59.14;101732.76;2292654;76;51211;-75
2023/01/27 10:42:26;;;;;;;;;;;;;;;18.03;58.92;101728.27;2298632;77;50704;-75
2023/01/27 10:45:40;;;;;;;;;;;;;;;18.00;59.09;101733.07;2294467;77;50600;-75
2023/01/27 10:48:51;;;;;;;;;;;;;;;17.99;59.03;101732.23;2181294;80;22458;-74
2023/01/27 10:52:00;;;;;;;;;;;;;;;17.96;59.27;101733.89;2180050;80;51356;-72
2023/01/27 10:55:09;;;;;;;;;;;;;;;17.94;59.54;101736.37;2186709;80;51521;-72
2023/01/27 10:58:19;;;;;;;;;;;;;;;17.91;59.42;101734.84;2143551;81;50717;-71
2023/01/27 11:01:22;;;;;;;;;;;;;;;17.87;59.42;101736.13;2195640;80;50071;-72
2023/01/27 11:04:42;;;;;;;;;;;;;;;17.82;59.59;101738.41;2185161;80;50396;-72
2023/01/27 11:07:46;;;;;;;;;;;;;;;17.91;59.48;101737.52;2176239;81;51603;-72
2023/01/27 11:14:30;;;;;;;;;;;;;;;18.01;59.26;101730.75;2206934;80;22423;-76
2023/01/27 11:17:38;;;;;;;;;;;;;;;18.12;58.97;101739.05;2199883;80;50449;-73
2023/01/27 11:20:40;;;;;;;;;;;;;;;18.12;58.93;101731.86;2206561;80;50778;-73
2023/01/27 11:23:44;;;;;;;;;;;;;;;18.12;58.73;101735.87;2211552;80;50800;-72
2023/01/27 11:26:47;;;;;;;;;;;;;;;18.11;58.56;101730.66;2153113;80;50321;-73
2023/01/27 11:29:52;;;;;;;;;;;;;;;18.10;58.36;101736.52;2195854;80;50456;-72
2023/01/27 11:32:55;;;;;;;;;;;;;;;18.12;58.23;101741.23;2173442;80;51430;-72
2023/01/27 11:35:57;;;;;;;;;;;;;;;18.08;58.18;101730.97;2154861;81;50260;-72
2023/01/27 11:39:00;;;;;;;;;;;;;;;18.04;58.14;101735.30;2187803;80;50317;-73
2023/01/27 11:42:02;;;;;;;;;;;;;;;17.91;58.38;101734.00;2149360;80;51749;-72
2023/01/27 11:45:03;;;;;;;;;;;;;;;17.84;58.44;101733.25;2133760;80;51455;-73
2023/01/27 11:48:06;;;;;;;;;;;;;;;17.86;58.39;101729.60;2199001;80;50740;-72
2023/01/27 11:51:24;;;;;;;;;;;;;;;17.98;58.15;101725.67;2227069;76;51542;-72
2023/01/27 11:54:27;;;;;;;;;;;;;;;18.08;57.78;101730.46;2266766;78;52417;-73
2023/01/27 11:57:28;;;;;;;;;;;;;;;18.16;57.58;101729.70;2292057;76;50884;-72
2023/01/27 12:00:44;;;;;;;;;;;;;;;18.23;57.41;101729.43;2285871;77;50406;-73
2023/01/27 12:03:47;;;;;;;;;;;;;;;18.26;57.23;101725.09;2239334;76;51509;-73
2023/01/27 12:06:50;;;;;;;;;;;;;;;18.26;57.20;101726.44;2266336;78;51003;-73
2023/01/27 12:09:52;;;;;;;;;;;;;;;18.31;57.07;101724.13;2301178;76;51524;-71
2023/01/27 12:12:53;;;;;;;;;;;;;;;18.31;56.91;101723.30;2284443;76;51291;-72
2023/01/27 12:15:56;;;;;;;;;;;;;;;18.23;57.17;101730.77;2302925;76;50011;-74
2023/01/27 12:19:02;;;;;;;;;;;;;;;18.16;57.34;101729.70;2287426;76;51029;-74
2023/01/27 12:22:08;;;;;;;;;;;;;;;18.15;57.37;101728.02;2286389;76;50327;-74
2023/01/27 12:25:17;;;;;;;;;;;;;;;18.08;57.47;101726.45;2287525;76;51642;-74
2023/01/27 12:28:20;;;;;;;;;;;;;;;18.06;57.51;101722.60;2306596;76;50691;-73
2023/01/27 12:31:26;;;;;;;;;;;;;;;18.08;57.46;101726.95;2284928;76;51723;-72
2023/01/27 12:34:35;;;;;;;;;;;;;;;18.06;57.44;101727.95;2319891;76;50699;-73
2023/01/27 12:37:37;;;;;;;;;;;;;;;18.13;57.23;101724.15;2314768;76;51461;-72
2023/01/27 12:40:39;;;;;;;;;;;;;;;18.20;57.05;101729.75;2313701;77;52114;-73
2023/01/27 12:43:51;;;;;;;;;;;;;;;18.25;56.96;101718.91;2317556;76;51155;-73
2023/01/27 12:47:02;;;;;;;;;;;;;;;18.33;56.81;101721.31;2311909;77;50679;-74
2023/01/27 12:50:20;;;;;;;;;;;;;;;18.36;56.74;101726.36;2313694;76;50149;-74
2023/01/27 12:53:26;;;;;;;;;;;;;;;18.30;56.83;101715.77;2313151;76;51490;-74
2023/01/27 12:56:26;;;;;;;;;;;;;;;18.32;56.78;101723.16;2299211;76;22339;-74
2023/01/27 12:59:28;;;;;;;;;;;;;;;18.26;56.94;101733.13;2294880;77;51542;-74
2023/01/27 13:02:32;;;;;;;;;;;;;;;18.23;56.99;101730.77;2319653;76;50679;-74
2023/01/27 13:05:36;;;;;;;;;;;;;;;18.18;57.04;101726.38;2321317;76;50836;-74
2023/01/27 13:08:37;;;;;;;;;;;;;;;18.13;57.19;101735.36;2272416;78;52023;-74
2023/01/27 13:11:39;;;;;;;;;;;;;;;18.09;57.28;101734.84;2282626;78;51783;-74
2023/01/27 13:14:42;;;;;;;;;;;;;;;18.09;57.27;101735.34;2282885;78;50446;-74
2023/01/27 13:17:45;;;;;;;;;;;;;;;18.12;57.17;101740.39;2283388;78;51414;-74
2023/01/27 13:20:54;;;;;;;;;;;;;;;18.11;57.18;101741.37;2250410;78;51768;-75
2023/01/27 13:23:56;;;;;;;;;;;;;;;18.16;57.29;101740.41;2250953;76;52610;-74
2023/01/27 13:26:57;;;;;;;;;;;;;;;18.16;57.41;101743.09;2277531;76;50132;-74
2023/01/27 13:30:00;;;;;;;;;;;;;;;18.20;57.49;101739.13;2322071;76;50363;-74
2023/01/27 13:33:09;;;;;;;;;;;;;;;18.30;57.25;101746.58;2287970;76;52478;-74
2023/01/27 13:36:19;;;;;;;;;;;;;;;18.31;57.18;101746.91;2321466;76;50840;-73
2023/01/27 13:39:25;;;;;;;;;;;;;;;18.33;57.04;101743.59;2321508;76;51378;-73
2023/01/27 13:42:35;;;;;;;;;;;;;;;18.32;57.12;101745.94;2321468;76;50755;-74
2023/01/27 13:45:39;;;;;;;;;;;;;;;18.25;57.21;101744.36;2287491;76;52524;-73
2023/01/27 13:48:45;;;;;;;;;;;;;;;18.18;57.40;101743.78;2321700;76;50327;-73
2023/01/27 13:51:46;;;;;;;;;;;;;;;18.11;57.70;101750.74;2322455;76;51593;-75
2023/01/27 13:54:48;;;;;;;;;;;;;;;18.08;58.03;101747.03;2310326;76;50743;-75
2023/01/27 13:57:51;;;;;;;;;;;;;;;18.04;58.09;101755.89;2279199;76;51738;-75
2023/01/27 14:00:54;;;;;;;;;;;;;;;18.00;58.28;101751.31;2319962;76;50786;-76
2023/01/27 14:04:01;;;;;;;;;;;;;;;17.99;58.54;101759.02;2321883;76;51403;-76
2023/01/27 14:07:06;;;;;;;;;;;;;;;18.02;58.31;101756.53;2303769;76;51555;-74
2023/01/27 14:10:22;;;;;;;;;;;;;;;18.07;58.13;101759.59;2288169;76;52360;-74
2023/01/27 14:13:26;;;;;;;;;;;;;;;18.13;58.03;101756.29;2321516;76;50540;-74
2023/01/27 14:16:32;;;;;;;;;;;;;;;18.24;57.57;101761.44;2321738;76;50728;-74
2023/01/27 14:19:35;;;;;;;;;;;;;;;18.31;57.22;101766.17;2318248;76;50307;-74
2023/01/27 14:22:48;;;;;;;;;;;;;;;18.25;57.23;101772.48;2291624;77;51870;-74
2023/01/27 14:25:57;;;;;;;;;;;;;;;18.22;57.25;101771.97;2296304;76;50106;-74
2023/01/27 14:29:03;;;;;;;;;;;;;;;18.15;57.38;101777.58;2289175;76;50085;-74
2023/01/27 14:32:19;;;;;;;;;;;;;;;18.09;57.52;101772.34;2282016;78;51448;-74
2023/01/27 14:35:37;;;;;;;;;;;;;;;18.03;57.57;101775.14;2248930;78;52814;-74
2023/01/27 14:38:43;;;;;;;;;;;;;;;17.93;57.81;101778.38;2282497;78;51470;-74
2023/01/27 14:41:47;;;;;;;;;;;;;;;17.87;57.91;101786.99;2281959;78;50714;-74
2023/01/27 14:44:50;;;;;;;;;;;;;;;17.91;57.79;101785.71;2281439;78;50698;-74
2023/01/27 14:48:08;;;;;;;;;;;;;;;18.00;57.43;101780.77;2248846;78;51754;-72
2023/01/27 14:51:12;;;;;;;;;;;;;;;18.11;57.14;101780.20;2289914;76;50701;-72
2023/01/27 14:54:16;;;;;;;;;;;;;;;18.12;57.28;101785.92;2286536;76;51474;-72
2023/01/27 14:57:22;;;;;;;;;;;;;;;18.17;57.13;101786.31;2297042;76;50408;-71
2023/01/27 15:00:31;;;;;;;;;;;;;;;18.26;56.82;101786.24;2248708;78;52407;-72
2023/01/27 15:03:40;;;;;;;;;;;;;;;18.34;56.64;101792.17;2275343;77;51551;-72
2023/01/27 15:06:50;;;;;;;;;;;;;;;18.42;56.36;101802.09;2282515;78;50628;-72
2023/01/27 15:10:00;;;;;;;;;;;;;;;18.42;56.28;101797.60;2282455;77;22236;-72
2023/01/27 15:13:20;;;;;;;;;;;;;;;18.40;56.35;101788.88;2282370;78;50813;-72
2023/01/27 15:16:32;;;;;;;;;;;;;;;18.40;56.35;101799.59;2282951;78;50671;-72
2023/01/27 15:19:35;;;;;;;;;;;;;;;18.38;56.28;101798.06;2282858;78;51450;-72
2023/01/27 15:22:38;;;;;;;;;;;;;;;18.37;56.32;101804.39;2283521;78;50820;-72
2023/01/27 15:25:53;;;;;;;;;;;;;;;18.31;56.42;101811.22;2259412;77;51837;-72
2023/01/27 15:28:55;;;;;;;;;;;;;;;18.21;56.59;101804.61;2315200;76;50780;-72
2023/01/27 15:32:16;;;;;;;;;;;;;;;18.25;56.52;101809.16;2322302;76;50772;-72
2023/01/27 15:35:29;;;;;;;;;;;;;;;18.22;56.60;101814.83;2322790;76;50549;-72
2023/01/27 15:38:34;;;;;;;;;;;;;;;18.22;56.85;101815.66;2288884;76;51709;-71
2023/01/27 15:41:37;;;;;;;;;;;;;;;18.30;56.73;101816.24;2324403;76;50767;-72
2023/01/27 15:44:39;;;;;;;;;;;;;;;18.36;56.50;101818.30;2322300;76;50712;-72
2023/01/27 15:47:41;;;;;;;;;;;;;;;18.40;56.43;101818.85;2321943;76;50694;-72
2023/01/27 15:50:46;;;;;;;;;;;;;;;18.37;56.47;101832.05;2321196;76;51458;-72
2023/01/27 15:53:50;;;;;;;;;;;;;;;18.36;56.49;101837.05;2323556;76;50418;-73
2023/01/27 15:56:52;;;;;;;;;;;;;;;18.29;56.79;101841.36;2303246;76;51515;-71
2023/01/27 15:59:53;;;;;;;;;;;;;;;18.22;57.12;101850.48;2318030;76;49376;-72
2023/01/27 16:02:56;;;;;;;;;;;;;;;18.21;57.47;101849.29;2317866;76;51172;-78
2023/01/27 16:06:08;;;;;;;;;;;;;;;18.10;57.95;101855.70;2318312;76;51564;-75
2023/01/27 16:09:07;;;;;;;;;;;;;;;18.06;58.38;101859.19;2314431;76;22730;-75
2023/01/27 16:12:26;;;;;;;;;;;;;;;18.06;58.48;101853.84;2313800;77;51513;-75